Dewalt, Texas
Current Conditions -  °F | °C
As of 9:53 PM on Saturday 25 Oct 2014 (Local Time) from KSGR Reporting Station
Clear Clear  
Wind Chill: 66°   Ceiling: Unl
Heat Index: 66°   Visibility: 10mi
Dew Point: 60°   Wind: 5mph
Humidity: 81%   Direction: 160°SSE
Pressure: 30.11"   Gusts: NA
Location:  29.5665°N, 95.6214°W
Report Text: KSGR 260253Z 16004KT 10SM CLR 19/16 A3011 RMK AO2 SLP198 T01890156 51009
Loading
Personal Weather Stations






























Interactive Weather Map
Tropical Storm Tracking
New forecast layout! Learn more

10-Day Weather Forecast

Advertisements
Track Severe Weather on mobile